createdAt,value
2019-03-17T00:00:41.829Z,4.70
2019-03-17T00:03:08.767Z,4.27
2019-03-17T00:05:35.477Z,5.73
2019-03-17T00:08:02.130Z,4.90
2019-03-17T00:10:28.787Z,5.00
2019-03-17T00:12:56.516Z,5.30
2019-03-17T00:15:23.670Z,4.57
2019-03-17T00:17:50.354Z,4.80
2019-03-17T00:20:17.236Z,4.33
2019-03-17T00:22:44.048Z,4.67
2019-03-17T00:25:10.773Z,4.33
2019-03-17T00:27:37.497Z,4.53
2019-03-17T00:30:06.158Z,4.43
2019-03-17T00:32:32.868Z,5.03
2019-03-17T00:34:59.491Z,5.17
2019-03-17T00:37:26.218Z,4.53
2019-03-17T00:39:53.067Z,4.93
2019-03-17T00:42:20.062Z,4.63
2019-03-17T00:44:47.099Z,5.00
2019-03-17T00:47:13.771Z,4.60
2019-03-17T00:49:40.448Z,4.80
2019-03-17T00:52:07.172Z,5.60
2019-03-17T00:54:33.999Z,4.57
2019-03-17T00:57:01.118Z,4.90
2019-03-17T00:59:27.761Z,5.00
2019-03-17T01:01:56.048Z,4.50
2019-03-17T01:04:23.008Z,4.30
2019-03-17T01:06:50.121Z,4.47
2019-03-17T01:09:17.099Z,4.80
2019-03-17T01:11:43.836Z,4.10
2019-03-17T01:14:16.355Z,4.87
2019-03-17T01:16:42.964Z,4.93
2019-03-17T01:19:09.632Z,4.47
2019-03-17T01:21:36.491Z,4.33
2019-03-17T01:24:03.171Z,4.33
2019-03-17T01:26:29.766Z,4.60
2019-03-17T01:28:56.413Z,5.20
2019-03-17T01:31:23.137Z,5.70
2019-03-17T01:33:50.027Z,4.60
2019-03-17T01:36:16.687Z,4.40
2019-03-17T01:38:43.306Z,4.97
2019-03-17T01:41:09.953Z,4.13
2019-03-17T01:43:36.608Z,4.10
2019-03-17T01:46:03.229Z,5.20
2019-03-17T01:48:30.487Z,4.80
2019-03-17T01:50:57.225Z,4.70
2019-03-17T01:53:24.080Z,4.80
2019-03-17T01:55:50.812Z,3.80
2019-03-17T01:58:17.485Z,5.43
2019-03-17T02:00:44.188Z,4.03
2019-03-17T02:03:11.025Z,4.53
2019-03-17T02:05:37.776Z,4.67
2019-03-17T02:08:04.399Z,4.33
2019-03-17T02:10:30.996Z,4.90
2019-03-17T02:12:57.629Z,3.60
2019-03-17T02:15:24.586Z,4.00
2019-03-17T02:17:51.443Z,3.97
2019-03-17T02:20:18.444Z,4.17
2019-03-17T02:22:45.237Z,3.40
2019-03-17T02:25:11.824Z,6.63
2019-03-17T02:27:38.452Z,4.30
2019-03-17T02:30:06.260Z,3.67
2019-03-17T02:32:33.047Z,3.23
2019-03-17T02:34:59.703Z,3.50
2019-03-17T02:37:26.374Z,3.43
2019-03-17T02:39:53.620Z,4.30
2019-03-17T02:42:20.246Z,3.27
2019-03-17T02:44:47.009Z,3.40
2019-03-17T02:47:13.592Z,3.13
2019-03-17T02:49:40.245Z,3.00
2019-03-17T02:52:06.880Z,2.77
2019-03-17T02:54:33.496Z,3.00
2019-03-17T02:57:00.335Z,2.80
2019-03-17T02:59:26.962Z,2.43
2019-03-17T03:01:53.616Z,2.90
2019-03-17T03:04:20.285Z,2.60
2019-03-17T03:06:47.034Z,2.87
2019-03-17T03:09:13.753Z,2.50
2019-03-17T03:11:40.344Z,2.50
2019-03-17T03:14:07.042Z,3.90
2019-03-17T03:16:34.012Z,2.90
2019-03-17T03:19:00.621Z,2.80
2019-03-17T03:21:27.269Z,3.10
2019-03-17T03:23:54.539Z,3.07
2019-03-17T03:26:21.161Z,2.90
2019-03-17T03:28:47.787Z,3.07
2019-03-17T03:31:15.130Z,2.70
2019-03-17T03:33:42.078Z,2.87
2019-03-17T03:36:11.562Z,3.10
2019-03-17T03:38:37.191Z,2.97
2019-03-17T03:41:04.646Z,3.53
2019-03-17T03:43:32.513Z,2.90
2019-03-17T03:45:59.150Z,3.00
2019-03-17T03:48:28.107Z,3.43
2019-03-17T03:50:55.512Z,2.90
2019-03-17T03:53:22.260Z,2.90
2019-03-17T03:55:49.049Z,4.20
2019-03-17T03:58:15.668Z,2.87
2019-03-17T04:00:42.299Z,3.30
2019-03-17T04:03:09.042Z,4.00
2019-03-17T04:05:36.039Z,3.80
2019-03-17T04:08:02.943Z,3.90
2019-03-17T04:10:29.802Z,3.70
2019-03-17T04:12:56.500Z,3.57
2019-03-17T04:15:23.214Z,4.23
2019-03-17T04:17:50.054Z,3.40
2019-03-17T04:20:16.767Z,3.00
2019-03-17T04:22:43.470Z,3.07
2019-03-17T04:25:13.955Z,3.57
2019-03-17T04:27:40.540Z,3.53
2019-03-17T04:30:07.254Z,3.47
2019-03-17T04:32:33.901Z,3.80
2019-03-17T04:35:00.535Z,4.00
2019-03-17T04:37:27.177Z,3.13
2019-03-17T04:39:53.797Z,3.93
2019-03-17T04:42:20.403Z,3.80
2019-03-17T04:45:06.887Z,3.03
2019-03-17T04:47:33.584Z,3.23
2019-03-17T04:50:00.351Z,3.40
2019-03-17T04:52:27.005Z,3.33
2019-03-17T04:54:53.599Z,3.53
2019-03-17T04:57:20.177Z,3.60
2019-03-17T04:59:46.785Z,4.00
2019-03-17T05:02:13.738Z,3.13
2019-03-17T05:04:40.522Z,3.67
2019-03-17T05:07:07.161Z,2.93
2019-03-17T05:09:33.788Z,2.70
2019-03-17T05:12:00.379Z,2.90
2019-03-17T05:14:27.045Z,3.43
2019-03-17T05:16:53.666Z,2.87
2019-03-17T05:19:20.272Z,2.73
2019-03-17T05:21:47.166Z,2.77
2019-03-17T05:24:13.776Z,2.83
2019-03-17T05:26:40.371Z,3.00
2019-03-17T05:29:07.036Z,2.80
2019-03-17T05:31:33.727Z,2.70
2019-03-17T05:34:00.337Z,2.80
2019-03-17T05:36:27.506Z,2.97
2019-03-17T05:38:54.213Z,2.70
2019-03-17T05:41:20.799Z,2.67
2019-03-17T05:43:47.424Z,2.50
2019-03-17T05:46:14.015Z,3.30
2019-03-17T05:48:40.652Z,3.00
2019-03-17T05:51:07.363Z,2.60
2019-03-17T05:53:33.943Z,2.70
2019-03-17T05:56:00.574Z,2.73
2019-03-17T05:58:27.295Z,2.80
2019-03-17T06:00:54.037Z,2.70
2019-03-17T06:03:20.900Z,2.87
2019-03-17T06:05:47.641Z,3.00
2019-03-17T06:08:14.352Z,2.73
2019-03-17T06:10:41.051Z,2.60
2019-03-17T06:13:08.385Z,3.30
2019-03-17T06:15:35.011Z,2.73
2019-03-17T06:18:01.728Z,2.70
2019-03-17T06:20:28.351Z,2.80
2019-03-17T06:22:54.951Z,2.47
2019-03-17T06:25:21.696Z,2.63
2019-03-17T06:27:48.438Z,2.60
2019-03-17T06:30:15.029Z,2.30
2019-03-17T06:32:41.614Z,2.50
2019-03-17T06:35:08.360Z,2.30
2019-03-17T06:37:34.984Z,2.40
2019-03-17T06:40:01.664Z,2.60
2019-03-17T06:42:28.566Z,2.50
2019-03-17T06:44:55.488Z,2.40
2019-03-17T06:47:22.078Z,2.40
2019-03-17T06:49:48.693Z,2.10
2019-03-17T06:52:15.280Z,2.37
2019-03-17T06:54:41.867Z,3.33
2019-03-17T06:57:08.553Z,2.60
2019-03-17T06:59:35.164Z,2.43
2019-03-17T07:02:01.865Z,2.50
2019-03-17T07:04:28.476Z,2.10
2019-03-17T07:06:55.219Z,1.97
2019-03-17T07:09:21.806Z,2.30
2019-03-17T07:11:48.459Z,2.30
2019-03-17T07:14:15.171Z,2.23
2019-03-17T07:16:41.756Z,2.07
2019-03-17T07:19:08.376Z,2.10
2019-03-17T07:21:34.964Z,2.40
2019-03-17T07:24:01.768Z,2.40
2019-03-17T07:26:28.780Z,1.73
2019-03-17T07:28:55.396Z,2.40
2019-03-17T07:31:21.973Z,1.90
2019-03-17T07:33:48.591Z,2.20
2019-03-17T07:36:15.212Z,2.30
2019-03-17T07:38:41.795Z,2.30
2019-03-17T07:41:08.825Z,2.40
2019-03-17T07:43:35.407Z,2.63
2019-03-17T07:46:02.180Z,2.40
2019-03-17T07:48:28.817Z,2.40
2019-03-17T07:50:55.465Z,2.10
2019-03-17T07:53:22.207Z,2.10
2019-03-17T07:55:48.791Z,1.80
2019-03-17T07:58:15.487Z,1.90
2019-03-17T08:00:42.138Z,2.50
2019-03-17T08:03:09.056Z,2.20
2019-03-17T08:05:35.745Z,2.13
2019-03-17T08:08:09.413Z,2.07
2019-03-17T08:10:30.992Z,2.30
2019-03-17T08:12:57.620Z,2.03
2019-03-17T08:15:24.264Z,2.10
2019-03-17T08:17:51.080Z,2.10
2019-03-17T08:20:17.703Z,1.80
2019-03-17T08:22:44.354Z,1.90
2019-03-17T08:25:11.078Z,1.93
2019-03-17T08:27:37.757Z,2.20
2019-03-17T08:30:05.228Z,2.20
2019-03-17T08:32:31.952Z,2.40
2019-03-17T08:34:58.673Z,2.70
2019-03-17T08:37:25.340Z,2.17
2019-03-17T08:39:51.963Z,2.10
2019-03-17T08:42:18.632Z,2.70
2019-03-17T08:44:45.218Z,3.10
2019-03-17T08:47:11.943Z,2.33
2019-03-17T08:49:38.601Z,2.40
2019-03-17T08:52:05.397Z,2.67
2019-03-17T08:54:32.043Z,2.43
2019-03-17T08:56:58.780Z,2.50
2019-03-17T08:59:26.843Z,2.17
2019-03-17T09:01:53.488Z,2.50
2019-03-17T09:04:20.075Z,2.47
2019-03-17T09:06:46.707Z,1.97
2019-03-17T09:09:13.360Z,3.00
2019-03-17T09:11:40.240Z,2.57
2019-03-17T09:14:06.954Z,2.73
2019-03-17T09:16:33.673Z,2.20
2019-03-17T09:19:00.261Z,2.10
2019-03-17T09:21:26.994Z,2.47
2019-03-17T09:23:53.756Z,2.67
2019-03-17T09:26:20.722Z,2.60
2019-03-17T09:28:47.396Z,2.40
2019-03-17T09:31:14.128Z,2.47
2019-03-17T09:33:40.740Z,2.27
2019-03-17T09:36:07.378Z,2.20
2019-03-17T09:38:46.406Z,2.47
2019-03-17T09:41:02.749Z,2.13
2019-03-17T09:43:29.639Z,2.47
2019-03-17T09:45:56.283Z,2.50
2019-03-17T09:48:22.972Z,3.90
2019-03-17T09:50:49.774Z,3.10
2019-03-17T09:53:16.451Z,3.00
2019-03-17T09:55:43.402Z,3.70
2019-03-17T09:58:10.100Z,2.23
2019-03-17T10:00:36.753Z,3.40
2019-03-17T10:03:03.487Z,3.60
2019-03-17T10:05:30.091Z,2.90
2019-03-17T10:07:56.817Z,2.77
2019-03-17T10:10:23.685Z,3.43
2019-03-17T10:12:50.375Z,2.53
2019-03-17T10:15:17.267Z,2.13
2019-03-17T10:17:43.932Z,2.33
2019-03-17T10:20:12.485Z,2.60
2019-03-17T10:22:39.880Z,2.13
2019-03-17T10:25:07.777Z,2.53
2019-03-17T10:27:34.444Z,2.50
2019-03-17T10:30:01.040Z,2.60
2019-03-17T10:32:27.778Z,3.67
2019-03-17T10:34:54.482Z,2.80
2019-03-17T10:37:21.148Z,2.47
2019-03-17T10:39:47.747Z,2.33
2019-03-17T10:42:14.371Z,2.33
2019-03-17T10:44:40.975Z,2.30
2019-03-17T10:47:07.576Z,2.17
2019-03-17T10:49:34.215Z,2.00
2019-03-17T10:52:00.889Z,2.80
2019-03-17T10:54:27.591Z,1.93
2019-03-17T10:56:54.215Z,1.80
2019-03-17T10:59:20.875Z,2.40
2019-03-17T11:01:47.471Z,2.03
2019-03-17T11:04:14.266Z,2.57
2019-03-17T11:06:40.918Z,2.50
2019-03-17T11:09:07.744Z,2.00
2019-03-17T11:11:34.517Z,2.23
2019-03-17T11:14:01.196Z,2.80
2019-03-17T11:16:27.851Z,2.83
2019-03-17T11:18:54.821Z,1.93
2019-03-17T11:21:21.718Z,2.70
2019-03-17T11:23:48.359Z,2.40
2019-03-17T11:26:15.048Z,2.77
2019-03-17T11:28:41.909Z,2.60
2019-03-17T11:31:11.657Z,2.30
2019-03-17T11:33:38.791Z,2.10
2019-03-17T11:36:05.573Z,2.50
2019-03-17T11:38:32.365Z,2.33
2019-03-17T11:40:59.102Z,5.60
2019-03-17T11:43:25.969Z,2.27
2019-03-17T11:45:52.754Z,2.57
2019-03-17T11:48:19.463Z,2.03
2019-03-17T11:50:46.227Z,2.50
2019-03-17T11:53:13.006Z,2.43
2019-03-17T11:55:39.730Z,3.30
2019-03-17T11:58:06.819Z,3.20
2019-03-17T12:00:33.493Z,3.03
2019-03-17T12:03:00.975Z,3.07
2019-03-17T12:05:27.719Z,3.60
2019-03-17T12:07:54.295Z,3.43
2019-03-17T12:10:20.972Z,3.30
2019-03-17T12:12:47.628Z,4.10
2019-03-17T12:15:14.576Z,3.57
2019-03-17T12:17:41.210Z,2.93
2019-03-17T12:20:08.380Z,2.90
2019-03-17T12:22:34.971Z,2.30
2019-03-17T12:25:01.636Z,3.47
2019-03-17T12:27:28.285Z,3.13
2019-03-17T12:29:55.013Z,2.73
2019-03-17T12:32:21.617Z,2.70
2019-03-17T12:34:48.253Z,2.40
2019-03-17T12:37:15.000Z,3.63
2019-03-17T12:39:41.616Z,2.13
2019-03-17T12:42:08.705Z,3.63
2019-03-17T12:44:35.409Z,2.30
2019-03-17T12:47:02.050Z,2.13
2019-03-17T12:49:28.636Z,2.20
2019-03-17T12:51:55.265Z,2.50
2019-03-17T12:54:21.881Z,2.40
2019-03-17T12:56:48.541Z,2.50
2019-03-17T12:59:15.197Z,1.73
2019-03-17T13:01:41.900Z,2.30
2019-03-17T13:04:08.570Z,2.80
2019-03-17T13:06:35.199Z,1.70
2019-03-17T13:09:03.491Z,1.17
2019-03-17T13:11:30.191Z,1.23
2019-03-17T13:13:56.873Z,1.03
2019-03-17T13:16:23.468Z,1.13
2019-03-17T13:18:50.109Z,1.00
2019-03-17T13:21:16.780Z,1.43
2019-03-17T13:23:43.389Z,2.10
2019-03-17T13:26:10.440Z,1.20
2019-03-17T13:28:37.856Z,1.20
2019-03-17T13:31:04.536Z,1.27
2019-03-17T13:33:31.223Z,1.20
2019-03-17T13:35:57.989Z,1.20
2019-03-17T13:38:24.653Z,1.60
2019-03-17T13:40:51.345Z,0.80
2019-03-17T13:43:17.930Z,1.93
2019-03-17T13:45:44.825Z,1.47
2019-03-17T13:48:11.466Z,2.33
2019-03-17T13:50:38.208Z,1.10
2019-03-17T13:53:04.991Z,1.80
2019-03-17T13:55:32.219Z,1.60
2019-03-17T13:57:59.455Z,1.73
2019-03-17T14:00:26.188Z,2.80
2019-03-17T14:02:53.040Z,2.67
2019-03-17T14:05:20.064Z,1.90
2019-03-17T14:07:46.793Z,1.40
2019-03-17T14:10:14.790Z,2.93
2019-03-17T14:12:41.662Z,2.97
2019-03-17T14:15:09.611Z,2.80
2019-03-17T14:17:36.321Z,4.40
2019-03-17T14:20:06.078Z,2.23
2019-03-17T14:22:32.905Z,2.20
2019-03-17T14:24:59.800Z,5.43
2019-03-17T14:27:26.586Z,3.47
2019-03-17T14:30:13.431Z,4.03
2019-03-17T14:32:40.072Z,2.13
2019-03-17T14:35:06.904Z,7.73
2019-03-17T14:37:33.608Z,3.53
2019-03-17T14:40:00.390Z,3.47
2019-03-17T14:42:27.053Z,2.60
2019-03-17T14:44:53.841Z,4.53
2019-03-17T14:47:20.516Z,4.80
2019-03-17T14:49:47.112Z,4.70
2019-03-17T14:52:13.796Z,2.80
2019-03-17T14:54:40.527Z,4.13
2019-03-17T14:57:07.318Z,7.63
2019-03-17T14:59:34.054Z,6.20
2019-03-17T15:02:00.679Z,4.10
2019-03-17T15:04:27.368Z,4.67
2019-03-17T15:06:54.077Z,2.40
2019-03-17T15:09:20.684Z,5.07
2019-03-17T15:11:47.366Z,6.70
2019-03-17T15:14:14.103Z,2.67
2019-03-17T15:16:40.702Z,5.90
2019-03-17T15:19:07.475Z,7.23
2019-03-17T15:21:34.191Z,5.87
2019-03-17T15:24:01.129Z,6.17
2019-03-17T15:26:27.712Z,5.63
2019-03-17T15:28:54.698Z,3.67
2019-03-17T15:31:21.284Z,4.70
2019-03-17T15:33:48.063Z,5.40
2019-03-17T15:36:14.764Z,3.53
2019-03-17T15:38:41.571Z,3.30
2019-03-17T15:41:18.014Z,3.00
2019-03-17T15:43:36.816Z,3.03
2019-03-17T15:46:03.435Z,4.07
2019-03-17T15:48:30.095Z,2.10
2019-03-17T15:50:56.878Z,3.30
2019-03-17T15:53:23.533Z,4.10
2019-03-17T15:55:50.341Z,3.77
2019-03-17T15:58:17.000Z,2.90
2019-03-17T16:00:43.740Z,4.50
2019-03-17T16:03:10.713Z,2.67
2019-03-17T16:05:37.537Z,4.13
2019-03-17T16:08:04.200Z,3.97
2019-03-17T16:10:30.928Z,3.57
2019-03-17T16:12:57.692Z,3.40
2019-03-17T16:15:24.444Z,3.80
2019-03-17T16:17:51.074Z,3.67
2019-03-17T16:20:18.420Z,3.67
2019-03-17T16:22:45.312Z,3.53
2019-03-17T16:25:12.808Z,4.17
2019-03-17T16:27:39.490Z,3.90
2019-03-17T16:30:09.603Z,2.40
2019-03-17T16:32:36.251Z,3.50
2019-03-17T16:35:03.656Z,3.30
2019-03-17T16:37:30.344Z,3.13
2019-03-17T16:39:57.047Z,5.90
2019-03-17T16:42:23.819Z,3.40
2019-03-17T16:44:50.557Z,2.10
2019-03-17T16:47:17.198Z,3.03
2019-03-17T16:49:44.124Z,2.70
2019-03-17T16:52:11.031Z,3.10
2019-03-17T16:54:37.626Z,2.40
2019-03-17T16:57:04.378Z,3.07
2019-03-17T16:59:30.998Z,3.43
2019-03-17T17:01:57.688Z,2.97
2019-03-17T17:04:24.354Z,3.00
2019-03-17T17:06:51.680Z,2.30
2019-03-17T17:09:18.360Z,3.83
2019-03-17T17:11:55.897Z,2.73
2019-03-17T17:14:14.583Z,4.07
2019-03-17T17:16:41.191Z,3.10
2019-03-17T17:19:07.853Z,3.03
2019-03-17T17:21:34.495Z,3.17
2019-03-17T17:24:01.132Z,3.40
2019-03-17T17:26:37.393Z,6.17
2019-03-17T17:28:57.236Z,4.07
2019-03-17T17:31:23.827Z,4.23
2019-03-17T17:33:50.852Z,3.60
2019-03-17T17:36:17.490Z,3.67
2019-03-17T17:38:44.096Z,3.10
2019-03-17T17:41:12.458Z,2.20
2019-03-17T17:43:39.573Z,3.00
2019-03-17T17:46:06.178Z,3.10
2019-03-17T17:48:32.912Z,1.87
2019-03-17T17:50:59.600Z,1.63
2019-03-17T17:53:26.240Z,1.90
2019-03-17T17:55:52.878Z,2.20
2019-03-17T17:58:19.500Z,2.47
2019-03-17T18:00:46.755Z,1.83
2019-03-17T18:03:13.715Z,1.90
2019-03-17T18:05:40.373Z,1.70
2019-03-17T18:08:07.256Z,2.00
2019-03-17T18:10:34.181Z,1.40
2019-03-17T18:13:00.879Z,1.43
2019-03-17T18:15:27.596Z,2.50
2019-03-17T18:17:54.415Z,1.53
2019-03-17T18:20:21.389Z,1.37
2019-03-17T18:22:48.249Z,2.10
2019-03-17T18:25:14.908Z,2.10
2019-03-17T18:27:41.563Z,2.10
2019-03-17T18:30:10.435Z,2.60
2019-03-17T18:32:38.472Z,2.70
2019-03-17T18:35:05.391Z,3.50
2019-03-17T18:37:32.320Z,2.70
2019-03-17T18:39:59.175Z,2.20
2019-03-17T18:42:32.988Z,5.23
2019-03-17T18:44:54.946Z,4.63
2019-03-17T18:47:21.874Z,3.80
2019-03-17T18:49:48.580Z,2.10
2019-03-17T18:52:15.407Z,2.17
2019-03-17T18:54:42.060Z,3.00
2019-03-17T18:57:08.669Z,1.67
2019-03-17T18:59:35.270Z,1.47
2019-03-17T19:02:02.189Z,1.37
2019-03-17T19:04:28.855Z,1.70
2019-03-17T19:06:55.458Z,1.10
2019-03-17T19:09:22.083Z,1.30
2019-03-17T19:11:48.720Z,1.20
2019-03-17T19:14:15.355Z,1.20
2019-03-17T19:16:42.117Z,1.60
2019-03-17T19:19:08.725Z,1.37
2019-03-17T19:21:35.409Z,1.40
2019-03-17T19:24:02.641Z,2.00
2019-03-17T19:26:29.258Z,1.60
2019-03-17T19:28:55.909Z,1.40
2019-03-17T19:31:22.944Z,2.33
2019-03-17T19:33:49.577Z,1.80
2019-03-17T19:36:16.216Z,1.60
2019-03-17T19:38:42.811Z,1.10
2019-03-17T19:41:09.424Z,2.00
2019-03-17T19:43:36.223Z,3.07
2019-03-17T19:46:03.050Z,2.77
2019-03-17T19:48:29.811Z,2.07
2019-03-17T19:50:56.473Z,1.80
2019-03-17T19:53:24.324Z,2.37
2019-03-17T19:55:50.965Z,1.40
2019-03-17T19:58:17.619Z,1.83
2019-03-17T20:00:44.244Z,2.50
2019-03-17T20:03:10.971Z,1.40
2019-03-17T20:05:37.642Z,4.40
2019-03-17T20:08:04.254Z,2.37
2019-03-17T20:10:31.183Z,1.40
2019-03-17T20:13:10.368Z,3.90
2019-03-17T20:15:26.339Z,3.07
2019-03-17T20:17:54.025Z,1.60
2019-03-17T20:20:20.828Z,1.20
2019-03-17T20:22:47.675Z,1.50
2019-03-17T20:25:14.436Z,2.40
2019-03-17T20:27:41.068Z,1.93
2019-03-17T20:30:08.662Z,1.67
2019-03-17T20:32:35.401Z,2.23
2019-03-17T20:35:02.336Z,1.90
2019-03-17T20:37:29.072Z,1.83
2019-03-17T20:39:55.954Z,1.80
2019-03-17T20:42:22.657Z,1.90
2019-03-17T20:44:49.271Z,2.40
2019-03-17T20:47:15.957Z,3.87
2019-03-17T20:49:42.667Z,3.20
2019-03-17T20:52:09.589Z,2.00
2019-03-17T20:54:37.280Z,1.80
2019-03-17T20:57:03.981Z,2.10
2019-03-17T20:59:30.594Z,1.80
2019-03-17T21:01:57.193Z,2.30
2019-03-17T21:04:25.209Z,3.20
2019-03-17T21:06:51.834Z,1.93
2019-03-17T21:09:18.844Z,1.50
2019-03-17T21:11:45.536Z,1.20
2019-03-17T21:14:12.844Z,1.90
2019-03-17T21:16:39.505Z,2.27
2019-03-17T21:19:06.172Z,3.20
2019-03-17T21:21:32.987Z,1.43
2019-03-17T21:23:59.613Z,2.00
2019-03-17T21:26:26.246Z,2.00
2019-03-17T21:28:53.169Z,2.23
2019-03-17T21:31:19.830Z,1.57
2019-03-17T21:33:46.570Z,1.50
2019-03-17T21:36:13.415Z,2.30
2019-03-17T21:38:40.124Z,1.90
2019-03-17T21:41:08.640Z,1.60
2019-03-17T21:43:35.293Z,1.67
2019-03-17T21:46:01.905Z,2.70
2019-03-17T21:48:28.550Z,1.80
2019-03-17T21:50:55.253Z,2.00
2019-03-17T21:53:21.875Z,2.10
2019-03-17T21:55:48.584Z,2.60
2019-03-17T21:58:15.228Z,1.63
2019-03-17T22:00:41.895Z,2.07
2019-03-17T22:03:16.111Z,2.73
2019-03-17T22:05:44.216Z,2.10
2019-03-17T22:08:10.903Z,2.10
2019-03-17T22:10:37.618Z,2.87
2019-03-17T22:13:04.348Z,2.10
2019-03-17T22:15:31.125Z,2.00
2019-03-17T22:17:57.815Z,2.93
2019-03-17T22:20:24.488Z,1.77
2019-03-17T22:22:51.187Z,1.93
2019-03-17T22:25:17.874Z,1.47
2019-03-17T22:27:44.595Z,2.00
2019-03-17T22:30:11.696Z,2.10
2019-03-17T22:32:38.505Z,1.53
2019-03-17T22:35:06.052Z,1.60
2019-03-17T22:37:32.732Z,1.40
2019-03-17T22:39:59.361Z,1.50
2019-03-17T22:42:26.080Z,1.30
2019-03-17T22:44:52.928Z,1.70
2019-03-17T22:47:19.526Z,2.13
2019-03-17T22:49:46.467Z,2.30
2019-03-17T22:52:13.163Z,2.00
2019-03-17T22:54:39.897Z,2.33
2019-03-17T22:57:06.729Z,1.90
2019-03-17T22:59:33.477Z,1.70
2019-03-17T23:02:00.347Z,2.10
2019-03-17T23:04:27.152Z,2.00
2019-03-17T23:06:54.884Z,1.57
2019-03-17T23:09:21.531Z,1.53
2019-03-17T23:11:48.280Z,1.30
2019-03-17T23:14:15.004Z,2.00
2019-03-17T23:16:41.687Z,2.13
2019-03-17T23:19:08.325Z,2.53
2019-03-17T23:21:35.089Z,2.40
2019-03-17T23:24:01.814Z,2.50
2019-03-17T23:26:28.688Z,1.70
2019-03-17T23:28:55.315Z,1.80
2019-03-17T23:31:21.956Z,2.77
2019-03-17T23:33:49.037Z,1.90
2019-03-17T23:36:15.846Z,1.80
2019-03-17T23:38:42.780Z,2.00
2019-03-17T23:41:09.480Z,1.70
2019-03-17T23:43:36.157Z,1.67
2019-03-17T23:46:02.819Z,6.00
2019-03-17T23:48:29.676Z,1.77
2019-03-17T23:50:56.305Z,3.53
2019-03-17T23:53:23.688Z,6.27
2019-03-17T23:55:50.418Z,1.67
2019-03-17T23:58:17.140Z,3.73
